Woolstock, Iowa
Current Conditions -  °F | °C
As of 4:15 AM on Thursday 23 Oct 2014 (Local Time) from KEBS Reporting Station
Light Rain Light Rain  
Wind Chill: 52°   Ceiling: 4100
Heat Index: 52°   Visibility: 8mi
Dew Point: 52°   Wind: 9mph
Humidity: 100%   Direction: 170°S
Pressure: 30.01"   Gusts: 16mph
Location:  42.57°N, 93.84°W
Report Text: KEBS 230915Z AUTO 17008G14KT 8SM -RA SCT035 BKN041 OVC046 11/11 A3001 RMK AO2
Loading
Personal Weather Stations






























Interactive Weather Map New forecast layout! Learn more

10-Day Weather Forecast

Advertisements
Track Severe Weather on mobile